Time;durP1;ratioP1;P1;durP2;ratioP2;P2;SDS_P1;SDS_P2;PMS_P1;PMS_P2;Temp;Humidity;BMP_temperature;BMP_pressure;BME280_temperature;BME280_humidity;BME280_pressure;Samples;Min_cycle;Max_cycle;Signal;HPM_P1;HPM_P2
2023/02/16 00:00:19;;;;;;;195.90;84.50;;;;;;;-2.18;75.69;101199.92;126793;1290;114901;-66
2023/02/16 00:08:44;;;;;;;222.10;95.80;;;;;;;-2.23;75.80;101194.95;126477;1304;635930;-64
2023/02/16 00:16:49;;;;;;;223.00;100.50;;;;;;;-2.33;75.82;101196.00;128848;1276;115312;-66
2023/02/16 00:20:53;;;;;;;231.30;100.20;;;;;;;-2.36;76.01;101197.69;123047;1289;5453029;-67
2023/02/16 00:28:57;;;;;;;;;;;;;;;;;;;;;
2023/02/16 00:33:01;;;;;;;225.40;98.00;;;;;;;-2.45;75.88;101202.61;128972;1277;128858;-67
2023/02/16 00:37:04;;;;;;;240.60;109.90;;;;;;;-2.49;76.16;101195.20;128480;1285;115397;-67
2023/02/16 00:41:49;;;;;;;268.10;113.10;;;;;;;-2.52;76.53;101189.36;126053;1299;5385517;-68
2023/02/16 00:45:20;;;;;;;221.90;96.60;;;;;;;-2.51;76.73;101191.99;126314;1314;114805;-67
2023/02/16 00:49:20;;;;;;;242.70;107.80;;;;;;;-2.53;76.63;101195.98;125732;1314;114998;-66
2023/02/16 00:57:48;;;;;;;244.90;109.20;;;;;;;-2.57;76.30;101197.50;126814;1292;635833;-67
2023/02/16 01:01:53;;;;;;;235.90;107.30;;;;;;;-2.61;76.74;101193.73;128841;1283;127956;-66
2023/02/16 01:05:38;;;;;;;277.10;118.40;;;;;;;-2.63;76.78;101191.08;128623;1275;115267;-67
2023/02/16 01:13:43;;;;;;;;;;;;;;;;;;;;;
2023/02/16 01:17:45;;;;;;;230.60;101.50;;;;;;;-2.68;76.64;101185.58;126022;1296;114919;-68
2023/02/16 01:29:59;;;;;;;234.40;103.30;;;;;;;-2.74;76.83;101170.95;126662;1292;635632;-67
2023/02/16 01:38:06;;;;;;;229.30;100.00;;;;;;;-2.80;76.73;101185.52;128207;1297;115296;-66
2023/02/16 01:42:13;;;;;;;222.30;98.10;;;;;;;-2.83;76.91;101178.64;122851;1313;5416563;-67
2023/02/16 01:46:14;;;;;;;220.50;98.30;;;;;;;-2.84;76.85;101174.94;126385;1315;114958;-68
2023/02/16 01:50:15;;;;;;;217.60;98.40;;;;;;;-2.88;76.71;101168.57;125696;1317;114971;-66
2023/02/16 01:54:29;;;;;;;221.80;98.10;;;;;;;-2.89;76.70;101163.65;125098;1310;127919;-66
2023/02/16 01:58:18;;;;;;;;;;;;;;;;;;;;;
2023/02/16 02:06:28;;;;;;;;;;;;;;;;;;;;;
2023/02/16 02:11:05;;;;;;;221.10;92.90;;;;;;;-2.94;76.88;101141.00;126475;1305;635902;-66
2023/02/16 02:15:10;;;;;;;209.40;94.30;;;;;;;-2.99;76.72;101136.39;130354;1267;128937;-67
2023/02/16 02:19:13;;;;;;;210.00;91.40;;;;;;;-3.01;76.76;101133.02;129502;1267;115200;-66
2023/02/16 02:28:03;;;;;;;;;;;;;;;;;;;;;
2023/02/16 02:32:38;;;;;;;206.60;90.50;;;;;;;-3.08;76.72;101126.08;127083;1297;114787;-67
2023/02/16 02:36:49;;;;;;;217.20;95.30;;;;;;;-3.11;76.89;101124.45;127314;1290;129619;-64
2023/02/16 02:40:56;;;;;;;222.80;93.90;;;;;;;-3.12;77.04;101125.09;127490;1296;115364;-62
2023/02/16 02:44:56;;;;;;;186.90;83.50;;;;;;;-3.14;77.03;101126.83;126486;1301;114910;-65
2023/02/16 02:48:57;;;;;;;210.90;94.70;;;;;;;-3.15;77.18;101128.37;126527;1306;115494;-64
2023/02/16 03:01:20;;;;;;;207.40;90.90;;;;;;;-3.16;76.97;101125.39;128488;1284;129136;-68
2023/02/16 03:05:26;;;;;;;217.90;95.30;;;;;;;-3.18;76.86;101120.47;129023;1274;115283;-67
2023/02/16 03:09:29;;;;;;;208.80;91.10;;;;;;;-3.21;77.05;101123.55;123762;1301;5435915;-66
2023/02/16 03:13:32;;;;;;;195.30;86.40;;;;;;;-3.23;76.94;101117.23;126665;1311;114871;-67
2023/02/16 03:29:56;;;;;;;211.30;93.30;;;;;;;-3.26;77.50;101122.21;126668;1293;114864;-67
2023/02/16 03:33:38;;;;;;;232.70;102.20;;;;;;;-3.26;77.60;101121.86;125948;1301;114842;-68
2023/02/16 03:41:42;;;;;;;187.80;76.00;;;;;;;-3.26;77.22;101108.59;125209;1320;129922;-67
2023/02/16 03:45:43;;;;;;;238.90;106.70;;;;;;;-3.28;77.52;101112.58;125660;1306;115448;-68
2023/02/16 03:53:46;;;;;;;232.90;102.40;;;;;;;-3.31;77.53;101107.80;125333;1322;114994;-68
2023/02/16 04:06:34;;;;;;;224.70;95.50;;;;;;;-3.28;77.40;101118.67;128781;1274;128320;-69
2023/02/16 04:10:36;;;;;;;220.60;95.10;;;;;;;-3.28;77.52;101111.70;126854;1306;116410;-69
2023/02/16 04:14:39;;;;;;;197.80;89.70;;;;;;;-3.28;77.52;101113.78;122121;1299;5390544;-68
2023/02/16 04:18:41;;;;;;;209.70;89.80;;;;;;;-3.28;77.16;101108.89;124773;1329;114910;-65
2023/02/16 04:31:05;;;;;;;216.60;97.70;;;;;;;-3.30;77.52;101120.20;127521;1278;128409;-68
2023/02/16 04:35:09;;;;;;;236.20;99.60;;;;;;;-3.31;77.72;101114.60;126439;1290;115573;-67
2023/02/16 04:39:09;;;;;;;223.90;96.60;;;;;;;-3.31;77.49;101109.02;122305;1312;5509134;-66
2023/02/16 04:43:11;;;;;;;226.90;98.00;;;;;;;-3.33;77.36;101109.85;125271;1304;115128;-65
2023/02/16 04:51:19;;;;;;;247.80;106.10;;;;;;;-3.32;77.44;101104.13;126388;1292;634849;-67
2023/02/16 04:55:13;;;;;;;;;;;;;;;;;;;;;
2023/02/16 04:59:19;;;;;;;238.70;103.70;;;;;;;-3.33;77.55;101105.65;127578;1283;114867;-65
2023/02/16 05:03:02;;;;;;;251.00;104.90;;;;;;;-3.32;77.73;101101.65;123947;1284;5541502;-68
2023/02/16 05:07:20;;;;;;;241.40;102.10;;;;;;;-3.31;77.74;101095.58;126143;1311;114945;-66
2023/02/16 05:15:02;;;;;;;217.80;95.70;;;;;;;-3.31;77.18;101092.60;124703;1329;130184;-67
2023/02/16 05:23:53;;;;;;;216.80;94.80;;;;;;;-3.32;77.66;101092.07;125966;1315;635124;-65
2023/02/16 05:27:14;;;;;;;218.00;91.80;;;;;;;-3.35;77.63;101090.44;128782;1289;127335;-64
2023/02/16 05:31:07;;;;;;;;;;;;;;;;;;;;;
2023/02/16 05:35:11;;;;;;;209.30;89.80;;;;;;;-3.35;77.72;101086.76;128253;1278;114950;-66
2023/02/16 05:39:14;;;;;;;203.50;89.30;;;;;;;-3.35;77.82;101091.66;123201;1307;114982;-62
2023/02/16 05:43:09;;;;;;;207.20;89.60;;;;;;;-3.35;77.38;101093.58;126246;1298;115748;-64
2023/02/16 05:51:30;;;;;;;242.30;100.40;;;;;;;-3.31;77.46;101103.23;126452;1292;636037;-65
2023/02/16 05:55:33;;;;;;;238.00;99.70;;;;;;;-3.32;77.86;101105.33;128834;1275;128749;-67
2023/02/16 05:59:39;;;;;;;225.20;98.30;;;;;;;-3.30;78.03;101113.05;128077;1277;114884;-66
2023/02/16 06:03:29;;;;;;;229.10;95.70;;;;;;;-3.30;77.92;101109.56;122458;1308;5662977;-68
2023/02/16 06:07:31;;;;;;;230.10;98.70;;;;;;;-3.29;78.03;101112.20;126681;1292;114875;-68
2023/02/16 06:18:53;;;;;;;219.30;98.90;;;;;;;-3.20;78.37;101119.55;126381;1303;636124;-67
2023/02/16 06:22:57;;;;;;;;;;;;;;;;;;;;;
2023/02/16 06:27:02;;;;;;;226.40;97.90;;;;;;;-3.14;78.26;101119.83;128456;1289;115209;-68
2023/02/16 06:31:02;;;;;;;;;;;;;;;;;;;;;
2023/02/16 06:34:59;;;;;;;227.00;97.40;;;;;;;-3.01;78.34;101124.27;122734;1315;114966;-68
2023/02/16 06:38:53;;;;;;;210.60;91.60;;;;;;;-2.92;78.40;101123.75;125470;1320;114897;-64
2023/02/16 06:42:55;;;;;;;234.00;100.40;;;;;;;-2.83;78.61;101123.57;124557;1326;115013;-67
2023/02/16 06:46:46;;;;;;;;;;;;;;;;;;;;;
2023/02/16 06:54:59;;;;;;;220.30;98.40;;;;;;;-2.49;78.41;101116.48;126394;1292;635635;-66
2023/02/16 06:59:03;;;;;;;224.70;101.80;;;;;;;-2.39;78.91;101116.80;128136;1297;128862;-65
2023/02/16 07:03:00;;;;;;;219.40;98.40;;;;;;;-2.25;78.64;101113.72;126539;1307;115377;-67
2023/02/16 07:07:04;;;;;;;217.20;100.80;;;;;;;-2.11;78.94;101115.86;123135;1301;5606925;-69
2023/02/16 07:10:30;;;;;;;220.10;97.60;;;;;;;-1.97;78.70;101117.65;124114;1333;114801;-68
2023/02/16 07:14:24;;;;;;;;;;;;;;;;;;;;;
2023/02/16 07:21:56;;;;;;;217.90;100.90;;;;;;;-1.49;79.21;101118.31;125851;1300;636098;-67
2023/02/16 07:25:32;;;;;;;203.30;96.00;;;;;;;-1.39;78.83;101115.48;129912;1259;128928;-68
2023/02/16 07:29:46;;;;;;;;;;;;;;;;;;;;;
2023/02/16 07:32:47;;;;;;;201.90;96.10;;;;;;;-1.04;79.11;101106.44;128550;1288;114939;-67
2023/02/16 07:36:41;;;;;;;193.30;92.70;;;;;;;-0.88;79.33;101110.27;124860;1272;5519254;-67
2023/02/16 07:40:28;;;;;;;194.40;95.80;;;;;;;-0.70;79.37;101115.03;128382;1276;114919;-67
2023/02/16 07:44:32;;;;;;;200.40;94.20;;;;;;;-0.51;79.60;101113.10;128031;1283;114938;-68
2023/02/16 07:48:16;;;;;;;;;;;;;;;;;;;;;
2023/02/16 07:52:12;;;;;;;184.60;86.60;;;;;;;-0.11;79.56;101106.23;126263;1294;115295;-68
2023/02/16 07:56:13;;;;;;;217.80;105.30;;;;;;;0.12;79.62;101106.02;126735;1295;114869;-69
2023/02/16 08:00:14;;;;;;;222.10;105.90;;;;;;;0.33;79.45;101098.08;125786;1300;114900;-69
2023/02/16 08:08:19;;;;;;;;;;;;;;;;;;;;;
2023/02/16 08:12:24;;;;;;;219.60;107.80;;;;;;;1.14;79.45;101090.47;128834;1289;127488;-68
2023/02/16 08:16:19;;;;;;;;;;;;;;;;;;;;;
2023/02/16 08:20:08;;;;;;;;;;;;;;;;;;;;;
2023/02/16 08:23:42;;;;;;;201.40;102.00;;;;;;;1.88;79.19;101076.07;127949;1278;114937;-68
2023/02/16 08:27:39;;;;;;;184.30;93.60;;;;;;;2.10;79.12;101072.52;128096;1298;114986;-69
2023/02/16 08:31:44;;;;;;;173.50;85.40;;;;;;;2.36;78.90;101067.66;127533;1286;128900;-69
2023/02/16 08:35:39;;;;;;;158.00;80.00;;;;;;;2.63;78.75;101064.05;126062;1314;116434;-69
2023/02/16 08:39:18;;;;;;;;;;;;;;;;;;;;;
2023/02/16 08:43:03;;;;;;;160.00;84.90;;;;;;;3.07;78.21;101069.64;124872;1304;114945;-69
2023/02/16 08:50:57;;;;;;;;;;;;;;;;;;;;;
2023/02/16 08:54:54;;;;;;;151.70;74.20;;;;;;;3.69;77.59;101064.06;128127;1292;128892;-69
2023/02/16 08:58:48;;;;;;;;;;;;;;;;;;;;;
2023/02/16 09:02:52;;;;;;;138.20;69.00;;;;;;;4.04;77.27;101071.33;127722;1287;114978;-69
2023/02/16 09:06:47;;;;;;;97.60;54.30;;;;;;;4.29;77.31;101071.60;122731;1311;115092;-68
2023/02/16 09:10:39;;;;;;;127.20;64.10;;;;;;;4.56;77.52;101067.05;126367;1295;114909;-70
2023/02/16 09:14:34;;;;;;;123.00;64.00;;;;;;;4.78;77.08;101065.88;125134;1324;114910;-70
2023/02/16 09:18:28;;;;;;;128.30;63.60;;;;;;;5.00;77.03;101064.17;125174;1307;129874;-70
2023/02/16 09:22:15;;;;;;;109.30;60.40;;;;;;;5.21;77.06;101064.40;124815;1313;116579;-70
2023/02/16 09:26:08;;;;;;;;;;;;;;;;;;;;;
2023/02/16 09:34:16;;;;;;;72.30;39.40;;;;;;;5.95;76.43;101058.75;128166;1280;129172;-71
2023/02/16 09:38:30;;;;;;;;;;;;;;;;;;;;;
2023/02/16 09:42:51;;;;;;;60.30;34.50;;;;;;;6.50;75.70;101048.31;126272;1273;5450031;-64
2023/02/16 09:46:38;;;;;;;62.00;33.20;;;;;;;6.83;75.20;101040.52;127962;1300;114843;-68
2023/02/16 09:50:56;;;;;;;61.70;34.30;;;;;;;7.10;74.63;101035.31;127010;1288;115383;-69
2023/02/16 09:54:30;;;;;;;53.30;30.30;;;;;;;7.32;74.15;101033.88;126501;1311;129798;-71
2023/02/16 09:58:40;;;;;;;;;;;;;;;;;;;;;
2023/02/16 10:02:35;;;;;;;;;;;;;;;;;;;;;
2023/02/16 10:06:50;;;;;;;;;;;;;;;;;;;;;
2023/02/16 10:10:53;;;;;;;52.90;28.10;;;;;;;7.97;71.98;101031.73;126142;1313;114947;-67
2023/02/16 10:14:55;;;;;;;53.30;29.60;;;;;;;8.12;71.57;101030.59;126054;1309;130281;-69
2023/02/16 10:19:08;;;;;;;45.30;27.80;;;;;;;8.24;71.35;101032.73;126733;1295;116456;-70
2023/02/16 10:23:11;;;;;;;;;;;;;;;;;;;;;
2023/02/16 10:27:07;;;;;;;;;;;;;;;;;;;;;
2023/02/16 10:31:18;;;;;;;55.80;27.10;;;;;;;8.48;69.72;101042.23;126945;1285;114925;-68
2023/02/16 10:35:20;;;;;;;49.90;28.30;;;;;;;8.57;69.41;101042.02;126545;1289;129651;-69
2023/02/16 10:39:13;;;;;;;;;;;;;;;;;;;;;
2023/02/16 10:43:25;;;;;;;42.50;25.80;;;;;;;8.70;68.63;101040.20;126693;1288;115625;-69
2023/02/16 10:47:26;;;;;;;49.30;27.30;;;;;;;8.75;68.24;101042.19;127117;1297;114844;-70
2023/02/16 10:51:39;;;;;;;;;;;;;;;;;;;;;
2023/02/16 10:55:02;;;;;;;;;;;;;;;;;;;;;
2023/02/16 10:59:07;;;;;;;49.20;26.90;;;;;;;8.77;67.09;101026.98;127732;1283;114765;-70
2023/02/16 11:03:19;;;;;;;43.30;25.30;;;;;;;8.83;67.13;101021.64;127743;1280;114846;-70
2023/02/16 11:07:04;;;;;;;38.50;23.30;;;;;;;8.87;66.78;101019.01;127710;1297;114835;-69
2023/02/16 11:11:18;;;;;;;47.30;26.90;;;;;;;8.92;66.75;101016.02;127518;1288;114966;-67
2023/02/16 11:15:20;;;;;;;44.00;25.20;;;;;;;8.90;66.07;101014.84;127889;1300;128229;-69
2023/02/16 11:19:15;;;;;;;;;;;;;;;;;;;;;
2023/02/16 11:23:24;;;;;;;33.70;18.40;;;;;;;8.90;65.90;101015.35;127295;1291;114935;-68
2023/02/16 11:27:25;;;;;;;46.90;26.90;;;;;;;8.92;65.68;101019.05;126700;1291;114876;-69
2023/02/16 11:31:30;;;;;;;45.30;27.20;;;;;;;8.93;65.60;101019.38;126903;1308;114856;-70
2023/02/16 11:35:30;;;;;;;49.80;27.20;;;;;;;8.95;65.38;101017.16;126283;1314;128633;-69
2023/02/16 11:39:32;;;;;;;;;;;;;;;;;;;;;
2023/02/16 11:43:41;;;;;;;57.50;34.60;;;;;;;9.09;65.25;101011.73;126203;1316;114938;-69
2023/02/16 11:47:30;;;;;;;53.70;31.80;;;;;;;9.20;65.05;101013.34;125862;1294;114774;-70
2023/02/16 11:51:34;;;;;;;;;;;;;;;;;;;;;
2023/02/16 11:55:35;;;;;;;61.20;39.20;;;;;;;9.38;64.74;101011.35;125706;1300;129840;-66
2023/02/16 12:53:51;;;;;;;49.20;28.10;;;;;;;10.16;62.58;100970.46;126093;1306;115317;-70
2023/02/16 12:58:01;;;;;;;46.10;27.20;;;;;;;10.15;62.42;100964.42;124228;1287;5746756;-70
2023/02/16 13:11:33;;;;;;;48.70;28.20;;;;;;;10.13;62.03;100949.64;124624;1299;113892;-70
2023/02/16 13:15:34;;;;;;;50.50;28.00;;;;;;;10.08;61.94;100948.78;124665;1296;127284;-70
2023/02/16 13:41:52;;;;;;;51.30;29.00;;;;;;;9.78;61.11;100915.83;124548;1293;114969;-66
2023/02/16 15:59:11;;;;;;;76.80;43.50;;;;;;;6.96;63.67;100884.14;123643;1306;114536;-64
2023/02/16 17:02:06;;;;;;;89.60;47.60;;;;;;;4.95;64.73;100883.31;121352;1336;115044;-65
2023/02/16 18:06:16;;;;;;;112.10;59.60;;;;;;;2.96;68.21;100907.54;125184;1321;113598;-77
2023/02/16 18:19:18;;;;;;;109.40;59.10;;;;;;;2.84;68.74;100910.30;127213;1298;128664;-76
2023/02/16 18:50:39;;;;;;;134.90;68.80;;;;;;;2.16;69.28;100909.50;126570;1304;113747;-76
2023/02/16 18:59:10;;;;;;;142.20;67.00;;;;;;;2.06;69.72;100904.95;127874;1294;116408;-79
2023/02/16 19:07:27;;;;;;;;;;;;;;;;;;;;;
2023/02/16 20:38:45;;;;;;;170.00;81.00;;;;;;;1.23;71.30;100896.59;123877;1337;115563;-73
2023/02/16 21:16:34;;;;;;;147.30;69.60;;;;;;;1.50;72.41;100891.41;124257;1330;127813;-74
2023/02/16 21:42:04;;;;;;;142.50;72.30;;;;;;;1.57;72.29;100889.46;124137;1330;114940;-74
2023/02/16 22:39:56;;;;;;;;;;;;;;;;;;;;;
